Time;durP1;ratioP1;P1;durP2;ratioP2;P2;SDS_P1;SDS_P2;PMS_P1;PMS_P2;Temp;Humidity;BMP_temperature;BMP_pressure;BME280_temperature;BME280_humidity;BME280_pressure;Samples;Min_cycle;Max_cycle;Signal;HPM_P1;HPM_P2
2023/04/01 00:01:37;;;;;;;;;0.00;0.00;;;;;11.82;69.66;99569.34;5095996;27;46298;-74
2023/04/01 00:04:02;;;;;;;;;0.00;0.00;;;;;11.83;70.00;99551.78;5095580;27;45669;-75
2023/04/01 00:09:49;;;;;;;;;0.50;0.00;;;;;11.77;70.89;99551.38;5095486;27;46123;-74
2023/04/01 00:12:14;;;;;;;;;0.00;0.00;;;;;11.81;70.45;99559.00;5095699;27;46328;-75
2023/04/01 00:14:40;;;;;;;;;0.00;0.00;;;;;11.78;70.48;99562.72;5095530;27;45494;-75
2023/04/01 00:17:05;;;;;;;;;1.00;0.00;;;;;11.78;70.48;99558.31;5095874;27;45703;-74
2023/04/01 00:19:32;;;;;;;;;0.00;0.00;;;;;11.80;70.46;99557.34;5095547;27;46418;-75
2023/04/01 00:25:19;;;;;;;;;0.00;0.00;;;;;11.81;70.66;99572.94;5095195;27;45557;-74
2023/04/01 00:27:44;;;;;;;;;0.25;0.00;;;;;11.72;70.62;99553.59;5095551;27;45921;-74
2023/04/01 00:30:10;;;;;;;;;0.00;0.00;;;;;11.78;70.67;99567.97;5095401;27;46439;-75
2023/04/01 00:32:36;;;;;;;;;0.00;0.00;;;;;11.78;70.88;99560.91;5095300;27;47255;-74
2023/04/01 00:35:02;;;;;;;;;1.25;0.00;;;;;11.80;70.82;99562.59;5094824;27;45511;-75
2023/04/01 00:37:28;;;;;;;;;0.00;0.00;;;;;11.82;70.97;99563.28;5095604;27;45605;-75
2023/04/01 00:39:54;;;;;;;;;0.25;0.00;;;;;11.84;70.97;99562.16;5095010;27;46529;-74
2023/04/01 00:42:20;;;;;;;;;1.00;0.00;;;;;11.76;70.71;99551.56;5095342;27;46652;-75
2023/04/01 00:44:52;;;;;;;;;0.00;0.00;;;;;11.87;70.91;99561.88;5094882;27;45549;-75
2023/04/01 00:47:18;;;;;;;;;0.50;0.00;;;;;11.88;70.71;99566.13;5095055;27;45619;-74
2023/04/01 00:49:46;;;;;;;;;1.00;0.00;;;;;11.88;70.81;99581.06;5095131;27;45561;-74
2023/04/01 00:55:36;;;;;;;;;0.00;0.00;;;;;11.76;70.81;99554.19;5092095;27;46823;-75
2023/04/01 00:58:08;;;;;;;;;0.25;0.00;;;;;11.78;71.00;99560.09;5094733;27;45868;-75
2023/04/01 01:00:35;;;;;;;;;1.75;0.00;;;;;11.81;70.94;99564.25;5094914;27;46240;-75
2023/04/01 01:03:02;;;;;;;;;1.25;0.00;;;;;11.82;70.93;99565.91;5094663;27;47919;-75
2023/04/01 01:05:59;;;;;;;;;0.00;0.00;;;;;11.79;71.14;99564.38;5094568;27;45544;-75
2023/04/01 01:08:37;;;;;;;;;0.00;0.00;;;;;11.73;71.36;99550.03;5094825;27;45633;-73
2023/04/01 01:11:08;;;;;;;;;0.50;0.25;;;;;11.76;71.38;99573.38;5094729;27;46464;-74
2023/04/01 01:14:00;;;;;;;;;0.75;0.00;;;;;11.73;71.84;99563.16;5094504;27;47205;-74
2023/04/01 01:16:28;;;;;;;;;0.25;0.00;;;;;11.69;71.73;99537.31;5083809;27;45778;-76
2023/04/01 01:19:09;;;;;;;;;0.00;0.00;;;;;11.69;71.69;99553.06;5094637;27;45897;-75
2023/04/01 01:22:14;;;;;;;;;0.00;0.00;;;;;11.67;71.38;99554.97;5094743;27;45667;-75
2023/04/01 01:25:30;;;;;;;;;0.25;0.00;;;;;11.64;71.59;99569.22;5094649;27;46702;-75
2023/04/01 01:28:29;;;;;;;;;1.00;0.00;;;;;11.68;71.15;99559.25;5089897;27;45616;-75
2023/04/01 01:31:09;;;;;;;;;1.00;0.00;;;;;11.66;71.17;99572.50;5094456;27;45541;-75
2023/04/01 01:33:54;;;;;;;;;0.00;0.00;;;;;11.68;71.33;99572.38;5094697;27;45909;-75
2023/04/01 01:39:44;;;;;;;;;0.00;0.00;;;;;11.59;72.08;99552.25;5031332;28;45610;-74
2023/04/01 01:42:13;;;;;;;;;0.00;0.00;;;;;11.59;72.27;99553.09;5031607;28;46054;-75
2023/04/01 01:44:42;;;;;;;;;0.00;0.00;;;;;11.51;72.25;99566.06;5031434;28;46662;-75
2023/04/01 01:47:08;;;;;;;;;0.00;0.00;;;;;11.58;72.64;99576.81;5031109;28;47504;-76
2023/04/01 01:49:36;;;;;;;;;0.50;0.00;;;;;11.56;72.88;99591.88;5031129;28;45741;-74
2023/04/01 01:55:29;;;;;;;;;0.00;0.00;;;;;11.45;73.24;99592.00;5030824;28;46071;-75
2023/04/01 01:58:00;;;;;;;;;0.00;0.00;;;;;11.41;73.27;99570.50;5031158;28;45620;-75
2023/04/01 02:00:27;;;;;;;;;0.00;0.00;;;;;11.41;73.41;99582.78;5031115;28;45803;-75
2023/04/01 02:02:54;;;;;;;;;0.50;0.00;;;;;11.51;73.43;99583.59;5031580;28;45692;-76
2023/04/01 02:05:24;;;;;;;;;1.00;0.00;;;;;11.53;73.20;99610.53;5031049;28;46648;-74
2023/04/01 02:11:19;;;;;;;;;0.00;0.00;;;;;11.42;73.40;99589.69;5034594;28;45597;-74
2023/04/01 02:13:58;;;;;;;;;1.75;0.00;;;;;11.37;73.32;99597.97;5055796;27;45885;-75
2023/04/01 02:16:40;;;;;;;;;2.00;0.00;;;;;11.35;73.55;99597.28;5097110;27;47684;-75
2023/04/01 02:19:08;;;;;;;;;0.00;0.00;;;;;11.32;73.29;99600.19;5097307;27;47450;-75
2023/04/01 02:21:35;;;;;;;;;0.50;0.00;;;;;11.30;73.10;99595.06;5079064;27;45657;-75
2023/04/01 02:24:07;;;;;;;;;0.00;0.00;;;;;11.34;72.90;99583.31;5095951;27;45883;-75
2023/04/01 02:26:32;;;;;;;;;0.00;0.00;;;;;11.34;72.68;99582.50;5097332;27;45611;-75
2023/04/01 02:29:03;;;;;;;;;0.75;0.00;;;;;11.25;72.81;99570.22;5097480;27;45640;-75
2023/04/01 02:31:29;;;;;;;;;0.00;0.00;;;;;11.37;72.45;99584.84;5095961;27;45625;-73
2023/04/01 02:33:56;;;;;;;;;0.00;0.00;;;;;11.42;72.41;99592.31;5097476;27;45647;-75
2023/04/01 02:36:21;;;;;;;;;1.00;0.00;;;;;11.50;72.00;99629.97;5097134;27;47215;-74
2023/04/01 02:38:48;;;;;;;;;0.75;0.00;;;;;11.57;71.74;99596.16;5097354;27;45610;-74
2023/04/01 02:41:13;;;;;;;;;0.00;0.00;;;;;11.60;71.36;99595.88;5097392;27;45686;-75
2023/04/01 02:43:39;;;;;;;;;0.50;0.00;;;;;11.63;71.40;99604.28;5097239;27;45790;-75
2023/04/01 02:46:04;;;;;;;;;0.00;0.00;;;;;11.67;71.28;99584.66;5096963;27;46422;-75
2023/04/01 02:48:31;;;;;;;;;1.00;0.00;;;;;11.71;71.38;99593.09;5096659;27;46120;-76
2023/04/01 02:50:56;;;;;;;;;0.75;0.00;;;;;11.71;71.11;99586.03;5097138;27;45778;-75
2023/04/01 02:56:44;;;;;;;;;0.00;0.00;;;;;11.74;71.08;99622.53;5095178;27;45772;-74
2023/04/01 02:59:09;;;;;;;;;1.00;0.00;;;;;11.72;70.37;99602.59;5096810;27;46112;-74
2023/04/01 03:01:34;;;;;;;;;0.00;0.00;;;;;11.69;70.74;99601.09;5095735;27;45919;-75
2023/04/01 03:04:00;;;;;;;;;0.00;0.00;;;;;11.74;70.52;99606.78;5096911;27;45585;-75
2023/04/01 03:06:25;;;;;;;;;0.00;0.00;;;;;11.74;70.44;99600.72;5096586;27;46825;-74
2023/04/01 03:08:51;;;;;;;;;0.00;0.00;;;;;11.73;70.83;99609.53;5097075;27;45778;-75
2023/04/01 03:11:16;;;;;;;;;0.00;0.00;;;;;11.70;70.48;99602.78;5097099;27;45684;-75
2023/04/01 03:13:41;;;;;;;;;1.00;0.00;;;;;11.76;70.92;99612.75;5096502;27;45664;-74
2023/04/01 03:16:07;;;;;;;;;0.00;0.00;;;;;11.71;70.31;99622.75;5096437;27;47267;-75
2023/04/01 03:18:32;;;;;;;;;0.50;0.00;;;;;11.76;70.55;99611.91;5096144;27;46212;-74
2023/04/01 03:21:14;;;;;;;;;0.25;0.00;;;;;11.68;70.32;99632.72;5096722;27;45513;-74
2023/04/01 03:27:01;;;;;;;;;0.00;0.00;;;;;11.68;70.53;99630.94;5096304;27;45540;-75
2023/04/01 03:29:27;;;;;;;;;0.00;0.00;;;;;11.64;71.34;99634.81;5096426;27;46126;-73
2023/04/01 03:31:52;;;;;;;;;1.00;0.00;;;;;11.63;71.25;99642.81;5095002;27;47220;-75
2023/04/01 03:34:17;;;;;;;;;0.00;0.00;;;;;11.57;71.40;99638.94;5096175;27;45863;-74
2023/04/01 03:36:43;;;;;;;;;0.00;0.00;;;;;11.51;71.93;99636.88;5096584;27;45596;-75
2023/04/01 03:39:08;;;;;;;;;0.00;0.00;;;;;11.44;71.86;99641.03;5096556;27;46573;-75
2023/04/01 03:41:36;;;;;;;;;1.00;0.00;;;;;11.45;71.82;99626.94;5096437;27;45642;-75
2023/04/01 03:44:02;;;;;;;;;0.50;0.00;;;;;11.45;71.72;99624.31;5096420;27;45542;-76
2023/04/01 03:46:27;;;;;;;;;0.00;0.00;;;;;11.41;71.90;99620.31;5096168;27;46582;-76
2023/04/01 03:48:52;;;;;;;;;0.00;0.00;;;;;11.46;71.43;99646.13;5095862;27;46436;-75
2023/04/01 03:51:18;;;;;;;;;1.00;0.00;;;;;11.45;71.09;99641.84;5095873;27;45648;-75
2023/04/01 03:57:05;;;;;;;;;0.00;0.00;;;;;11.51;70.83;99650.00;5095034;27;45752;-74
2023/04/01 03:59:30;;;;;;;;;0.00;0.00;;;;;11.54;70.51;99641.88;5095953;27;45791;-75
2023/04/01 04:01:56;;;;;;;;;1.00;0.00;;;;;11.57;70.47;99640.75;5096190;27;45594;-75
2023/04/01 04:04:21;;;;;;;;;0.00;0.00;;;;;11.57;70.92;99649.44;5096110;27;45674;-75
2023/04/01 04:06:47;;;;;;;;;0.75;0.00;;;;;11.60;70.88;99643.94;5095568;27;46645;-75
2023/04/01 04:09:13;;;;;;;;;0.75;0.00;;;;;11.65;70.60;99649.59;5095778;27;45620;-74
2023/04/01 04:11:38;;;;;;;;;0.00;0.00;;;;;11.69;70.68;99658.84;5095642;27;45511;-74
2023/04/01 04:14:04;;;;;;;;;1.00;0.00;;;;;11.70;70.65;99644.75;5095591;27;45824;-74
2023/04/01 04:16:29;;;;;;;;;1.00;1.00;;;;;11.71;70.21;99656.06;5095352;27;46442;-74
2023/04/01 04:18:55;;;;;;;;;0.00;0.00;;;;;11.70;70.30;99662.28;5095423;27;46149;-75
2023/04/01 04:21:20;;;;;;;;;0.25;0.00;;;;;11.68;70.29;99680.78;5095641;27;45596;-75
2023/04/01 04:27:07;;;;;;;;;0.00;0.00;;;;;11.68;70.41;99656.34;5095314;27;45595;-74
2023/04/01 04:29:32;;;;;;;;;0.00;0.00;;;;;11.65;70.42;99661.88;5094244;27;45603;-73
2023/04/01 04:31:58;;;;;;;;;1.00;1.00;;;;;11.69;70.40;99671.94;5095340;27;45677;-73
2023/04/01 04:34:23;;;;;;;;;0.00;0.00;;;;;11.69;70.53;99658.84;5095549;27;45849;-75
2023/04/01 04:36:48;;;;;;;;;1.00;0.00;;;;;11.66;69.81;99680.09;5095344;27;46388;-76
2023/04/01 04:42:35;;;;;;;;;0.00;0.00;;;;;11.70;69.87;99681.47;5095356;27;45679;-75
2023/04/01 04:45:01;;;;;;;;;0.50;0.00;;;;;11.69;70.21;99682.44;5095452;27;45568;-75
2023/04/01 04:47:26;;;;;;;;;1.00;0.00;;;;;11.68;70.62;99686.03;5093524;27;46556;-74
2023/04/01 04:49:51;;;;;;;;;0.00;0.00;;;;;11.66;70.07;99680.09;5094959;27;46299;-75
2023/04/01 04:52:17;;;;;;;;;0.50;0.00;;;;;11.66;70.18;99680.09;5094985;27;45830;-76
2023/04/01 04:54:42;;;;;;;;;0.00;0.00;;;;;11.65;69.75;99669.75;5094994;27;45733;-74
2023/04/01 04:57:08;;;;;;;;;0.25;0.00;;;;;11.58;69.81;99660.78;5094290;27;47409;-74
2023/04/01 04:59:33;;;;;;;;;1.75;0.00;;;;;11.71;70.08;99674.44;5094512;27;45800;-75
2023/04/01 05:01:58;;;;;;;;;0.00;0.00;;;;;11.71;69.57;99677.88;5093418;27;45561;-75
2023/04/01 05:04:24;;;;;;;;;0.25;0.00;;;;;11.74;69.79;99676.81;5095038;27;45706;-73
2023/04/01 05:06:49;;;;;;;;;1.00;0.00;;;;;11.74;69.26;99675.00;5093900;27;46968;-73
2023/04/01 05:12:38;;;;;;;;;0.00;0.00;;;;;11.74;69.49;99689.94;5094657;27;45589;-70
2023/04/01 05:15:06;;;;;;;;;1.00;0.00;;;;;11.75;69.66;99678.47;5094520;27;45622;-76
2023/04/01 05:17:32;;;;;;;;;1.75;0.00;;;;;11.74;69.49;99679.44;5094515;27;46777;-74
2023/04/01 05:19:57;;;;;;;;;0.00;0.00;;;;;11.78;69.35;99707.03;5094437;27;46340;-74
2023/04/01 05:22:23;;;;;;;;;0.00;0.00;;;;;11.75;69.46;99689.81;5094293;27;45609;-71
2023/04/01 05:28:10;;;;;;;;;0.00;0.00;;;;;11.71;69.30;99706.72;5094179;27;45656;-72
2023/04/01 05:30:36;;;;;;;;;0.75;0.00;;;;;11.68;69.44;99701.78;5094143;27;47181;-72
2023/04/01 05:33:01;;;;;;;;;1.00;0.00;;;;;11.68;69.30;99709.66;5094237;27;45565;-73
2023/04/01 05:35:27;;;;;;;;;0.00;0.00;;;;;11.73;69.60;99701.38;5094269;27;45910;-73
2023/04/01 05:37:55;;;;;;;;;0.00;0.00;;;;;11.72;69.13;99715.44;5094105;27;45481;-76
2023/04/01 05:40:21;;;;;;;;;0.00;0.00;;;;;11.71;69.32;99711.19;5094017;27;46404;-71
2023/04/01 05:42:46;;;;;;;;;0.00;0.00;;;;;11.72;69.44;99712.81;5094141;27;45631;-71
2023/04/01 05:45:11;;;;;;;;;0.00;0.00;;;;;11.70;69.59;99715.59;5094172;27;45804;-71
2023/04/01 05:47:37;;;;;;;;;0.00;0.00;;;;;11.72;69.33;99744.28;5093715;27;46423;-71
2023/04/01 05:50:02;;;;;;;;;0.00;0.00;;;;;11.69;69.55;99716.56;5093920;27;46141;-77
2023/04/01 05:52:27;;;;;;;;;0.00;0.00;;;;;11.68;69.23;99722.75;5094415;27;45641;-76
2023/04/01 05:58:14;;;;;;;;;0.50;0.00;;;;;11.68;69.27;99737.69;5091934;27;45783;-75
2023/04/01 06:00:40;;;;;;;;;0.50;0.00;;;;;11.68;69.06;99753.41;5092933;27;47358;-72
2023/04/01 06:03:05;;;;;;;;;0.00;0.00;;;;;11.67;69.38;99739.47;5094016;27;46021;-73
2023/04/01 06:05:38;;;;;;;;;0.00;0.00;;;;;11.64;68.98;99739.75;5094111;27;45633;-74
2023/04/01 06:08:16;;;;;;;;;0.00;0.00;;;;;11.65;69.22;99743.22;5093778;27;45544;-72
2023/04/01 06:10:53;;;;;;;;;0.00;0.00;;;;;11.65;69.41;99751.91;5093740;27;46273;-73
2023/04/01 06:13:43;;;;;;;;;0.00;0.00;;;;;11.68;69.04;99740.28;5093491;27;45893;-72
2023/04/01 06:16:49;;;;;;;;;0.00;0.00;;;;;11.68;68.80;99746.38;5094136;27;45632;-74
2023/04/01 06:19:45;;;;;;;;;0.00;0.00;;;;;11.69;69.32;99750.66;5093975;27;45613;-74
2023/04/01 06:22:13;;;;;;;;;0.25;0.00;;;;;11.72;69.00;99762.66;5093440;27;45996;-72
2023/04/01 06:24:57;;;;;;;;;0.00;0.00;;;;;11.73;68.97;99767.00;5093216;27;45553;-75
2023/04/01 06:27:35;;;;;;;;;0.00;0.00;;;;;11.74;68.39;99776.53;5093574;27;45720;-74
2023/04/01 06:30:26;;;;;;;;;0.00;0.00;;;;;11.74;68.33;99782.59;5093359;27;46534;-70
2023/04/01 06:33:03;;;;;;;;;1.00;0.00;;;;;11.69;68.25;99761.16;5082314;27;46090;-72
2023/04/01 06:35:43;;;;;;;;;1.00;0.00;;;;;11.76;68.38;99764.94;5093432;27;45704;-74
2023/04/01 06:42:04;;;;;;;;;0.00;0.00;;;;;11.83;68.34;99769.59;5093065;27;45656;-73
2023/04/01 06:45:16;;;;;;;;;1.25;0.00;;;;;11.83;67.86;99772.22;5029938;28;46291;-73
2023/04/01 06:47:49;;;;;;;;;0.00;0.00;;;;;11.86;67.97;99780.69;5030162;28;45703;-72
2023/04/01 06:50:32;;;;;;;;;0.25;0.00;;;;;11.86;67.95;99785.09;5030649;28;45688;-73
2023/04/01 06:53:09;;;;;;;;;1.00;0.25;;;;;11.84;68.10;99785.22;5031618;28;46385;-73
2023/04/01 06:59:02;;;;;;;;;0.50;0.00;;;;;11.86;68.07;99790.34;5032263;28;45848;-75
2023/04/01 07:01:37;;;;;;;;;0.00;0.00;;;;;11.81;67.84;99768.94;5034261;28;45725;-76
2023/04/01 07:04:11;;;;;;;;;1.00;0.00;;;;;11.85;67.98;99776.41;5033646;28;46571;-76
2023/04/01 07:07:07;;;;;;;;;0.25;0.00;;;;;11.92;67.87;99787.19;5033282;28;45985;-77
2023/04/01 07:09:38;;;;;;;;;0.00;0.00;;;;;11.90;67.40;99795.19;5033394;28;45709;-75
2023/04/01 07:12:18;;;;;;;;;0.00;0.00;;;;;11.88;67.70;99785.78;5033425;28;45616;-73
2023/04/01 07:14:48;;;;;;;;;0.00;0.00;;;;;11.89;67.45;99787.44;5033061;28;45662;-72
2023/04/01 07:17:39;;;;;;;;;0.00;0.00;;;;;11.98;67.54;99800.59;5033151;28;46060;-75
2023/04/01 07:20:18;;;;;;;;;0.75;0.00;;;;;11.99;66.80;99793.50;5078194;27;45688;-78
2023/04/01 07:22:48;;;;;;;;;0.00;0.00;;;;;11.93;66.81;99773.09;5111484;27;46092;-75
2023/04/01 07:25:16;;;;;;;;;0.25;0.00;;;;;11.97;67.14;99798.94;5095810;27;46297;-76
2023/04/01 07:27:43;;;;;;;;;0.00;0.00;;;;;11.95;67.15;99784.25;5094766;27;46502;-76
2023/04/01 07:30:18;;;;;;;;;0.00;0.00;;;;;11.89;66.69;99787.44;5095918;27;45653;-72
2023/04/01 07:33:06;;;;;;;;;1.00;0.00;;;;;11.95;66.96;99797.38;5096186;27;45618;-74
2023/04/01 07:35:57;;;;;;;;;0.50;0.00;;;;;11.95;67.00;99792.97;5096107;27;46389;-82
2023/04/01 07:38:25;;;;;;;;;0.00;0.00;;;;;11.96;66.72;99807.75;5095752;27;46078;-73
2023/04/01 07:41:27;;;;;;;;;0.75;0.00;;;;;12.02;66.64;99809.00;5095883;27;45631;-72
2023/04/01 07:44:24;;;;;;;;;0.00;0.00;;;;;12.08;66.38;99813.72;5096005;27;45537;-71
2023/04/01 07:47:07;;;;;;;;;0.75;0.00;;;;;12.14;66.01;99831.53;5095904;27;46600;-72
2023/04/01 07:50:02;;;;;;;;;0.00;0.00;;;;;12.13;66.60;99803.63;5096163;27;45920;-75
2023/04/01 07:52:36;;;;;;;;;1.00;0.00;;;;;12.20;66.60;99812.59;5096169;27;45841;-75
2023/04/01 07:58:44;;;;;;;;;0.00;0.00;;;;;12.27;66.49;99813.69;5095325;27;45927;-74
2023/04/01 08:01:23;;;;;;;;;0.00;0.00;;;;;12.31;66.32;99825.56;5095473;27;47308;-71
2023/04/01 08:04:18;;;;;;;;;0.00;0.00;;;;;12.32;66.61;99832.50;5093884;27;45881;-72
2023/04/01 08:07:01;;;;;;;;;0.25;0.00;;;;;12.32;65.81;99826.41;5032577;28;45962;-72
2023/04/01 08:09:49;;;;;;;;;0.00;0.00;;;;;12.33;65.95;99828.91;5033006;28;45759;-74
2023/04/01 08:12:34;;;;;;;;;0.00;0.00;;;;;12.34;65.54;99834.97;5032694;28;45954;-72
2023/04/01 08:15:09;;;;;;;;;0.00;0.00;;;;;12.41;64.58;99847.44;5032733;28;45811;-75
2023/04/01 08:17:59;;;;;;;;;0.00;0.00;;;;;12.47;65.36;99846.84;5015515;28;46072;-73
2023/04/01 08:20:58;;;;;;;;;0.75;0.00;;;;;12.48;65.32;99838.00;5015941;28;48521;-77
2023/04/01 08:23:38;;;;;;;;;0.00;0.00;;;;;12.54;64.68;99841.88;5032320;28;46401;-74
2023/04/01 08:26:29;;;;;;;;;0.50;0.00;;;;;12.60;64.82;99851.81;5032456;28;45762;-76
2023/04/01 08:29:47;;;;;;;;;0.00;0.00;;;;;12.67;64.64;99845.03;5032588;28;45739;-76
2023/04/01 08:32:18;;;;;;;;;0.00;0.00;;;;;12.77;64.31;99845.84;4896041;29;45708;-77
2023/04/01 08:34:47;;;;;;;;;0.00;0.00;;;;;12.82;64.11;99862.03;4895831;29;46337;-77
2023/04/01 08:37:20;;;;;;;;;0.00;0.00;;;;;12.85;62.87;99859.09;4895393;29;45796;-76
2023/04/01 08:43:15;;;;;;;;;0.00;0.00;;;;;12.96;64.58;99850.22;4910280;28;45772;-76
2023/04/01 08:46:05;;;;;;;;;0.75;0.00;;;;;12.97;64.35;99842.19;4934027;28;45686;-76
2023/04/01 08:48:33;;;;;;;;;0.50;0.00;;;;;12.98;65.91;99849.13;4933566;28;45696;-77
2023/04/01 08:51:29;;;;;;;;;0.00;0.00;;;;;12.97;63.31;99844.00;4934039;28;45752;-77
2023/04/01 08:54:03;;;;;;;;;0.00;0.00;;;;;12.97;63.81;99876.38;4933506;28;46906;-77
2023/04/01 09:00:25;;;;;;;;;0.00;0.00;;;;;12.96;64.22;99847.59;4920805;28;45928;-76
2023/04/01 09:03:10;;;;;;;;;0.25;0.00;;;;;12.97;64.50;99865.03;4914783;28;45718;-80
2023/04/01 09:06:04;;;;;;;;;1.00;0.00;;;;;12.89;63.53;99847.34;4914340;28;46363;-75
2023/04/01 09:08:51;;;;;;;;;0.00;0.00;;;;;12.95;63.95;99848.59;4980431;28;46095;-76
2023/04/01 09:12:03;;;;;;;;;0.00;0.00;;;;;12.94;64.43;99855.63;5074123;28;45672;-77
2023/04/01 09:14:42;;;;;;;;;0.00;0.00;;;;;12.75;63.68;99821.50;5072892;28;45870;-76
2023/04/01 09:17:13;;;;;;;;;0.00;0.00;;;;;13.02;64.42;99853.09;5072819;28;45618;-77
2023/04/01 09:20:08;;;;;;;;;0.00;0.00;;;;;13.11;64.33;99853.25;5074212;28;46071;-76
2023/04/01 09:22:33;;;;;;;;;0.00;0.00;;;;;13.13;65.14;99854.75;5073497;27;45726;-77
2023/04/01 09:28:45;;;;;;;;;0.00;0.00;;;;;13.14;64.46;99872.22;5073817;28;46301;-76
2023/04/01 09:31:54;;;;;;;;;0.00;0.00;;;;;13.13;63.57;99920.50;5074009;28;45940;-77
2023/04/01 09:34:40;;;;;;;;;0.00;0.00;;;;;13.07;64.44;99886.03;5066975;27;45675;-79
2023/04/01 09:37:21;;;;;;;;;0.00;0.00;;;;;13.12;63.41;99884.66;5073602;28;45473;-79
2023/04/01 09:40:14;;;;;;;;;0.00;0.00;;;;;13.17;63.62;99877.16;5070224;28;45679;-78
2023/04/01 09:46:17;;;;;;;;;0.00;0.00;;;;;13.29;64.63;99865.50;5072716;28;45522;-78
2023/04/01 09:48:51;;;;;;;;;0.00;0.00;;;;;13.33;63.28;99868.69;5073389;28;45577;-78
2023/04/01 09:51:39;;;;;;;;;1.00;0.00;;;;;13.41;63.15;99905.63;5072804;28;45962;-76
2023/04/01 09:54:05;;;;;;;;;0.00;0.00;;;;;13.41;62.32;99880.13;5072555;28;46478;-78
2023/04/01 09:57:07;;;;;;;;;1.00;0.00;;;;;13.43;62.30;99893.16;5073352;28;45509;-79
2023/04/01 09:59:55;;;;;;;;;0.00;0.00;;;;;13.42;62.73;99892.31;5083103;27;45586;-79
2023/04/01 10:02:42;;;;;;;;;0.00;0.00;;;;;13.45;63.72;99876.25;5094743;27;45468;-78
2023/04/01 10:05:34;;;;;;;;;0.25;0.00;;;;;13.46;62.32;99874.44;5096834;27;46538;-77
2023/04/01 10:08:25;;;;;;;;;1.50;0.00;;;;;13.49;62.60;99902.28;5094021;27;45507;-79
2023/04/01 10:14:56;;;;;;;;;1.00;0.00;;;;;13.57;60.19;99878.69;5093750;27;45489;-79
2023/04/01 10:17:50;;;;;;;;;1.00;0.00;;;;;13.64;61.84;99879.75;5030877;28;46161;-78
2023/04/01 10:20:30;;;;;;;;;0.00;0.00;;;;;13.65;60.00;99870.91;5030843;28;45662;-77
2023/04/01 10:23:07;;;;;;;;;0.00;0.00;;;;;13.74;60.33;99883.16;5031252;28;45690;-78
2023/04/01 10:32:45;;;;;;;;;0.00;0.00;;;;;13.97;58.06;99886.22;5034466;28;45768;-85
2023/04/01 10:35:28;;;;;;;;;1.00;0.00;;;;;14.05;58.40;99878.41;5017456;28;46065;-80
2023/04/01 10:38:12;;;;;;;;;0.00;0.00;;;;;14.06;58.42;99870.34;5033992;28;45646;-79
2023/04/01 10:40:57;;;;;;;;;0.75;0.00;;;;;13.99;57.32;99855.28;5033955;28;46730;-78
2023/04/01 10:43:42;;;;;;;;;2.00;0.00;;;;;14.16;57.29;99873.75;5033708;28;45568;-80
2023/04/01 10:46:26;;;;;;;;;0.00;0.00;;;;;14.20;59.02;99869.81;5033644;28;45797;-79
2023/04/01 10:49:18;;;;;;;;;0.00;0.00;;;;;14.20;57.26;99908.50;5033941;28;45665;-78
2023/04/01 10:52:14;;;;;;;;;0.00;0.00;;;;;14.25;56.82;99874.66;5037297;27;45669;-77
2023/04/01 10:54:47;;;;;;;;;1.00;0.00;;;;;14.26;58.25;99881.56;5096278;27;45509;-78
2023/04/01 11:01:07;;;;;;;;;0.00;0.00;;;;;14.29;56.36;99882.13;5094942;27;45723;-80
2023/04/01 11:04:09;;;;;;;;;0.00;0.00;;;;;14.34;56.24;99879.03;5096554;27;46116;-78
2023/04/01 11:07:20;;;;;;;;;1.00;0.00;;;;;14.43;56.00;99880.78;5096100;27;45729;-80
2023/04/01 11:10:38;;;;;;;;;0.00;0.00;;;;;14.42;55.88;99873.84;5096915;27;45723;-77
2023/04/01 11:16:59;;;;;;;;;0.00;0.00;;;;;14.60;57.12;99864.13;5095754;27;45899;-77
2023/04/01 11:20:00;;;;;;;;;0.00;0.00;;;;;14.64;55.85;99876.00;5096226;27;45671;-79
2023/04/01 11:22:49;;;;;;;;;0.00;0.00;;;;;14.77;55.04;99854.53;5033290;28;45501;-76
2023/04/01 11:25:56;;;;;;;;;0.75;0.00;;;;;14.72;55.45;99825.16;5032793;28;45756;-78
2023/04/01 11:32:29;;;;;;;;;2.00;0.00;;;;;14.88;58.22;99880.66;5033551;28;45769;-79
2023/04/01 11:35:09;;;;;;;;;0.00;0.00;;;;;14.83;56.54;99880.28;4915913;28;45781;-79
2023/04/01 11:38:02;;;;;;;;;0.00;0.00;;;;;14.82;55.01;99878.63;4915647;28;45762;-79
2023/04/01 11:40:41;;;;;;;;;0.00;0.00;;;;;14.81;55.26;99845.31;4915418;28;46225;-79
2023/04/01 11:43:27;;;;;;;;;0.00;0.00;;;;;14.77;55.11;99858.97;4915775;28;45624;-79
2023/04/01 11:46:11;;;;;;;;;0.75;0.00;;;;;14.76;55.31;99865.22;4915403;28;45688;-81
2023/04/01 11:48:50;;;;;;;;;0.00;0.00;;;;;14.81;54.40;99895.41;4915391;28;45757;-79
2023/04/01 11:51:19;;;;;;;;;0.00;0.00;;;;;14.78;55.55;99894.91;4915510;28;46014;-78
2023/04/01 11:53:58;;;;;;;;;0.00;0.00;;;;;14.74;54.37;99878.56;4915098;28;45725;-80
2023/04/01 11:57:00;;;;;;;;;1.00;0.00;;;;;14.78;55.13;99873.81;4915311;28;45624;-78
2023/04/01 11:59:53;;;;;;;;;0.00;0.00;;;;;14.75;54.78;99867.03;4945416;28;45787;-78
2023/04/01 12:02:56;;;;;;;;;2.00;0.00;;;;;14.93;55.03;99875.72;4993360;28;46019;-78
2023/04/01 12:05:36;;;;;;;;;1.00;0.00;;;;;14.96;54.01;99891.25;4993315;28;45756;-79
2023/04/01 12:08:13;;;;;;;;;0.25;0.00;;;;;14.98;52.11;99910.38;4993294;28;45642;-80
2023/04/01 12:10:38;;;;;;;;;0.50;0.00;;;;;15.00;53.56;99876.78;5010095;28;46802;-79
2023/04/01 12:13:23;;;;;;;;;0.00;0.00;;;;;14.94;55.23;99861.56;5074851;27;46196;-77
2023/04/01 12:16:10;;;;;;;;;0.00;0.00;;;;;15.06;54.97;99878.78;5075281;27;45586;-77
2023/04/01 12:18:46;;;;;;;;;0.00;0.00;;;;;15.09;54.32;99875.84;5074785;28;45782;-78
2023/04/01 12:21:36;;;;;;;;;2.75;0.00;;;;;15.09;54.60;99904.03;5074970;27;45781;-78
2023/04/01 12:24:27;;;;;;;;;0.00;0.00;;;;;15.10;54.23;99876.66;5074627;28;45691;-78
2023/04/01 12:27:15;;;;;;;;;0.50;0.00;;;;;15.17;53.61;99893.50;5090096;27;45630;-78
2023/04/01 12:30:02;;;;;;;;;1.00;0.00;;;;;15.26;54.29;99868.00;5075139;27;45604;-77
2023/04/01 12:32:36;;;;;;;;;0.00;0.00;;;;;15.36;56.50;99866.09;5090214;27;47356;-78
2023/04/01 12:35:19;;;;;;;;;0.00;0.00;;;;;15.40;56.93;99880.59;5075002;28;46836;-81
2023/04/01 12:38:05;;;;;;;;;0.00;0.00;;;;;15.33;54.40;99851.38;5075272;27;45740;-80
2023/04/01 12:40:39;;;;;;;;;0.00;0.00;;;;;15.56;54.23;99869.31;5090790;27;45596;-77
2023/04/01 12:46:36;;;;;;;;;0.00;0.00;;;;;15.68;54.17;99868.06;5074301;28;45621;-78
2023/04/01 12:49:16;;;;;;;;;0.00;0.00;;;;;15.68;52.81;99871.53;5074258;27;45763;-77
2023/04/01 12:52:08;;;;;;;;;0.25;0.00;;;;;15.71;53.24;99868.56;5073637;27;45580;-77
2023/04/01 12:54:42;;;;;;;;;0.00;0.00;;;;;15.72;54.08;99862.28;5074257;27;46616;-75
2023/04/01 12:57:23;;;;;;;;;1.00;0.00;;;;;15.79;57.03;99865.13;5073780;27;46360;-77
2023/04/01 13:03:50;;;;;;;;;0.00;0.00;;;;;15.78;53.45;99881.97;5093468;27;45870;-81
2023/04/01 13:06:15;;;;;;;;;0.00;0.00;;;;;15.78;54.25;99866.09;5093677;27;45646;-80
2023/04/01 13:08:56;;;;;;;;;1.00;0.00;;;;;15.80;54.51;99877.34;5095289;27;45606;-81
2023/04/01 13:11:34;;;;;;;;;1.00;0.00;;;;;15.74;54.23;99855.03;5094804;27;45675;-78
2023/04/01 13:17:32;;;;;;;;;1.00;0.00;;;;;16.03;53.87;99859.09;5094965;27;45556;-76
2023/04/01 13:20:25;;;;;;;;;0.00;0.00;;;;;16.12;55.15;99860.75;5094611;27;47039;-79
2023/04/01 13:23:02;;;;;;;;;0.50;0.00;;;;;16.19;53.49;99867.03;5093817;27;45816;-78
2023/04/01 13:26:04;;;;;;;;;0.00;0.00;;;;;16.17;54.01;99875.13;5094273;27;45569;-77
2023/04/01 13:35:14;;;;;;;;;0.00;0.00;;;;;16.07;53.95;99849.84;5094168;27;45680;-77
2023/04/01 13:37:51;;;;;;;;;1.00;0.00;;;;;16.05;52.89;99862.38;5094867;27;45654;-77
2023/04/01 13:40:26;;;;;;;;;0.00;0.00;;;;;16.07;54.57;99885.03;5094432;27;46488;-74
2023/04/01 13:43:03;;;;;;;;;1.00;0.00;;;;;16.06;52.83;99869.31;5094285;27;45786;-78
2023/04/01 13:46:02;;;;;;;;;0.00;0.00;;;;;16.05;52.40;99870.31;5094014;27;45647;-76
2023/04/01 13:48:58;;;;;;;;;0.00;0.00;;;;;16.06;53.37;99871.97;5094592;27;45655;-74
2023/04/01 13:52:01;;;;;;;;;0.00;0.00;;;;;16.10;53.48;99892.59;5093993;27;46322;-72
2023/04/01 13:55:20;;;;;;;;;0.00;0.00;;;;;16.04;55.73;99868.66;5094401;27;45840;-73
2023/04/01 13:58:10;;;;;;;;;0.00;0.00;;;;;15.99;58.67;99881.50;5031267;28;45610;-75
2023/04/01 14:04:18;;;;;;;;;0.00;0.00;;;;;15.89;54.49;99879.84;5022667;28;45965;-73
2023/04/01 14:07:07;;;;;;;;;1.00;0.00;;;;;15.93;56.09;99878.53;5017586;28;47219;-77
2023/04/01 14:09:53;;;;;;;;;0.00;0.00;;;;;15.90;55.32;99872.75;5017778;28;46155;-77
2023/04/01 14:12:37;;;;;;;;;0.00;0.00;;;;;15.89;55.11;99874.56;5017925;28;46044;-75
2023/04/01 14:18:50;;;;;;;;;0.00;0.00;;;;;15.99;56.82;99900.00;5017486;28;45688;-75